createdAt,value
2022-11-01T00:02:37.084Z,100238.72
2022-11-01T00:07:41.385Z,100228.22
2022-11-01T00:12:45.450Z,100223.13
2022-11-01T00:17:48.328Z,100221.56
2022-11-01T00:22:52.358Z,100223.34
2022-11-01T00:27:55.040Z,100219.53
2022-11-01T00:32:57.767Z,100223.44
2022-11-01T00:38:02.064Z,100213.94
2022-11-01T00:43:06.833Z,100213.25
2022-11-01T00:48:09.535Z,100212.78
2022-11-01T00:53:13.828Z,100208.66
2022-11-01T00:58:16.974Z,100202.69
2022-11-01T01:03:19.735Z,100191.06
2022-11-01T01:08:24.034Z,100190.34
2022-11-01T01:13:26.774Z,100183.25
2022-11-01T01:18:29.458Z,100199.41
2022-11-01T01:23:33.665Z,100219.63
2022-11-01T01:28:41.672Z,100216.81
2022-11-01T01:33:47.568Z,100213.63
2022-11-01T01:38:53.541Z,100201.53
2022-11-01T01:43:56.211Z,100208.56
2022-11-01T01:48:59.543Z,100201.75
2022-11-01T01:54:03.618Z,100189.16
2022-11-01T01:59:07.526Z,100189.44
2022-11-01T02:04:11.739Z,100179.91
2022-11-01T02:09:15.763Z,100174.66
2022-11-01T02:14:18.456Z,100168.56
2022-11-01T02:19:40.265Z,100173.72
2022-11-01T02:24:53.805Z,100163.09
2022-11-01T02:30:06.657Z,100162.38
2022-11-01T02:35:14.609Z,100151.88
2022-11-01T02:40:20.274Z,100164.75
2022-11-01T02:45:29.007Z,100171.25
2022-11-01T02:50:34.620Z,100167.84
2022-11-01T02:55:37.351Z,100156.59
2022-11-01T03:00:41.201Z,100158.72
2022-11-01T03:05:58.648Z,100152.88
2022-11-01T03:11:06.242Z,100178.03
2022-11-01T03:16:13.372Z,100177.47
2022-11-01T03:21:21.200Z,100176.00
2022-11-01T03:26:26.639Z,100165.50
2022-11-01T03:31:30.512Z,100163.94
2022-11-01T03:36:38.410Z,100168.56
2022-11-01T03:41:44.639Z,100190.34
2022-11-01T03:46:47.753Z,100176.31
2022-11-01T03:51:52.011Z,100166.56
2022-11-01T03:56:54.909Z,100172.88
2022-11-01T04:01:57.955Z,100179.22
2022-11-01T04:07:02.126Z,100179.50
2022-11-01T04:12:05.596Z,100189.25
2022-11-01T04:17:26.892Z,100198.44
2022-11-01T04:22:30.887Z,100196.34
2022-11-01T04:27:33.744Z,100192.22
2022-11-01T04:32:36.378Z,100201.38
2022-11-01T04:37:40.437Z,100191.50
2022-11-01T04:42:43.221Z,100197.94
2022-11-01T04:47:52.121Z,100180.97
2022-11-01T04:52:56.123Z,100181.25
2022-11-01T04:57:58.878Z,100172.34
2022-11-01T05:03:02.609Z,100171.63
2022-11-01T05:08:07.758Z,100170.78
2022-11-01T05:13:10.566Z,100170.88
2022-11-01T05:18:13.229Z,100164.66
2022-11-01T05:23:17.258Z,100170.00
2022-11-01T05:28:19.981Z,100175.53
2022-11-01T05:33:22.620Z,100184.44
2022-11-01T05:38:26.742Z,100188.09
2022-11-01T05:43:29.428Z,100187.25
2022-11-01T05:48:32.075Z,100193.59
2022-11-01T05:53:36.140Z,100189.09
2022-11-01T05:58:38.938Z,100197.38
2022-11-01T06:03:41.617Z,100197.38
2022-11-01T06:08:45.909Z,100193.81
2022-11-01T06:13:48.594Z,100193.13
2022-11-01T06:18:51.340Z,100206.53
2022-11-01T06:23:55.426Z,100206.63
2022-11-01T06:29:01.493Z,100221.03
2022-11-01T06:34:04.884Z,100228.25
2022-11-01T06:39:10.913Z,100221.19
2022-11-01T06:44:14.669Z,100248.03
2022-11-01T06:49:19.145Z,100276.72
2022-11-01T06:54:23.522Z,100287.47
2022-11-01T06:59:26.369Z,100302.72
2022-11-01T07:04:29.697Z,100320.53
2022-11-01T07:09:33.987Z,100323.09
2022-11-01T07:14:36.637Z,100316.88
2022-11-01T07:19:39.319Z,100323.81
2022-11-01T07:24:43.268Z,100328.25
2022-11-01T07:29:45.972Z,100324.44
2022-11-01T07:34:48.785Z,100310.16
2022-11-01T07:39:52.807Z,100315.31
2022-11-01T07:44:55.651Z,100306.28
2022-11-01T07:49:58.312Z,100303.59
2022-11-01T07:55:02.373Z,100310.78
2022-11-01T08:00:06.212Z,100319.72
2022-11-01T08:05:15.288Z,100336.53
2022-11-01T08:10:19.542Z,100336.53
2022-11-01T08:15:22.577Z,100353.63
2022-11-01T08:20:25.415Z,100345.41
2022-11-01T08:25:29.435Z,100338.28
2022-11-01T08:30:32.432Z,100347.91
2022-11-01T08:35:35.236Z,100351.88
2022-11-01T08:40:40.270Z,100341.72
2022-11-01T08:45:42.996Z,100365.69
2022-11-01T08:50:45.688Z,100365.22
2022-11-01T08:55:50.070Z,100372.75
2022-11-01T09:00:52.894Z,100371.50
2022-11-01T09:05:55.673Z,100390.09
2022-11-01T09:11:00.101Z,100381.00
2022-11-01T09:16:06.147Z,100363.13
2022-11-01T09:21:09.233Z,100364.81
2022-11-01T09:26:13.280Z,100372.75
2022-11-01T09:31:20.784Z,100394.91
2022-11-01T09:36:24.385Z,100403.38
2022-11-01T09:41:33.650Z,100424.94
2022-11-01T09:46:46.611Z,100415.06
2022-11-01T09:51:49.336Z,100429.31
2022-11-01T09:56:59.233Z,100444.63
2022-11-01T10:02:11.013Z,100440.38
2022-11-01T10:07:17.983Z,100458.06
2022-11-01T10:12:28.502Z,100463.19
2022-11-01T10:17:50.889Z,100452.44
2022-11-01T10:22:54.776Z,100446.25
2022-11-01T10:28:04.686Z,100452.16
2022-11-01T10:33:25.788Z,100449.38
2022-11-01T10:44:02.149Z,100443.03
2022-11-01T10:49:06.410Z,100447.84
2022-11-01T10:54:12.315Z,100437.53
2022-11-01T10:59:18.108Z,100441.13
2022-11-01T11:04:22.128Z,100439.16
2022-11-01T11:09:28.042Z,100443.47
2022-11-01T11:14:33.299Z,100433.81
2022-11-01T11:19:38.277Z,100439.28
2022-11-01T11:24:42.316Z,100449.16
2022-11-01T11:29:49.164Z,100460.97
2022-11-01T11:34:56.528Z,100458.06
2022-11-01T11:40:08.033Z,100458.06
2022-11-01T11:45:21.519Z,100453.03
2022-11-01T11:50:32.189Z,100460.44
2022-11-01T11:55:42.027Z,100449.09
2022-11-01T12:00:48.792Z,100458.00
2022-11-01T12:05:55.634Z,100461.66
2022-11-01T12:10:58.887Z,100466.25
2022-11-01T12:16:20.555Z,100468.75
2022-11-01T12:21:25.789Z,100465.53
2022-11-01T12:26:29.023Z,100469.78
2022-11-01T12:31:33.059Z,100471.88
2022-11-01T12:36:37.076Z,100463.06
2022-11-01T12:41:43.783Z,100462.41
2022-11-01T12:46:49.991Z,100467.16
2022-11-01T12:51:53.651Z,100472.56
2022-11-01T12:56:56.712Z,100472.88
2022-11-01T13:02:03.367Z,100484.00
2022-11-01T13:07:12.724Z,100481.69
2022-11-01T13:12:19.746Z,100486.59
2022-11-01T13:17:26.694Z,100489.69
2022-11-01T13:22:32.879Z,100487.28
2022-11-01T13:27:37.374Z,100486.78
2022-11-01T13:32:44.582Z,100494.94
2022-11-01T13:37:49.427Z,100509.88
2022-11-01T13:42:53.909Z,100498.75
2022-11-01T13:47:58.384Z,100500.00
2022-11-01T13:53:04.468Z,100500.59
2022-11-01T13:58:07.196Z,100503.16
2022-11-01T14:03:24.345Z,100510.50
2022-11-01T14:08:28.732Z,100516.59
2022-11-01T14:13:33.325Z,100514.63
2022-11-01T14:19:13.675Z,100515.41
2022-11-01T14:24:24.277Z,100517.75
2022-11-01T14:29:26.954Z,100503.09
2022-11-01T14:34:35.347Z,100509.22
2022-11-01T14:39:39.472Z,100514.34
2022-11-01T14:44:46.792Z,100518.50
2022-11-01T14:49:54.089Z,100516.66
2022-11-01T14:54:59.282Z,100517.53
2022-11-01T15:00:20.816Z,100518.16
2022-11-01T15:05:25.599Z,100535.00
2022-11-01T15:10:28.713Z,100534.41
2022-11-01T15:15:33.545Z,100535.13
2022-11-01T15:20:39.799Z,100526.09
2022-11-01T15:25:44.320Z,100529.41
2022-11-01T15:30:47.498Z,100525.50
2022-11-01T15:35:56.238Z,100521.59
2022-11-01T15:40:58.969Z,100528.78
2022-11-01T15:46:02.464Z,100535.78
2022-11-01T15:51:08.985Z,100535.66
2022-11-01T15:56:12.769Z,100534.81
2022-11-01T16:01:16.776Z,100538.09
2022-11-01T16:06:22.734Z,100540.66
2022-11-01T16:11:26.276Z,100551.19
2022-11-01T16:16:29.192Z,100544.69
2022-11-01T16:21:33.991Z,100546.41
2022-11-01T16:26:54.700Z,100542.38
2022-11-01T16:32:09.496Z,100550.06
2022-11-01T16:37:23.865Z,100557.03
2022-11-01T16:42:27.246Z,100566.72
2022-11-01T16:47:30.138Z,100579.66
2022-11-01T16:52:35.428Z,100584.00
2022-11-01T16:57:38.121Z,100579.06
2022-11-01T17:02:40.919Z,100577.97
2022-11-01T17:07:45.272Z,100583.13
2022-11-01T17:12:48.252Z,100582.63
2022-11-01T17:17:51.175Z,100584.94
2022-11-01T17:22:56.167Z,100598.88
2022-11-01T17:27:58.843Z,100605.00
2022-11-01T17:33:01.873Z,100609.41
2022-11-01T17:38:06.758Z,100615.03
2022-11-01T17:43:10.452Z,100616.47
2022-11-01T17:48:13.378Z,100618.91
2022-11-01T17:53:18.217Z,100626.75
2022-11-01T17:58:20.973Z,100630.41
2022-11-01T18:03:24.038Z,100622.47
2022-11-01T18:08:28.723Z,100622.81
2022-11-01T18:13:36.888Z,100625.50
2022-11-01T18:18:48.560Z,100636.16
2022-11-01T18:23:52.784Z,100634.19
2022-11-01T18:28:55.595Z,100634.09
2022-11-01T18:34:00.285Z,100635.53
2022-11-01T18:39:13.954Z,100640.78
2022-11-01T18:44:16.840Z,100645.31
2022-11-01T18:49:19.485Z,100651.81
2022-11-01T18:54:26.027Z,100653.41
2022-11-01T18:59:30.106Z,100662.97
2022-11-01T19:04:35.600Z,100671.88
2022-11-01T19:09:40.293Z,100672.47
2022-11-01T19:14:44.029Z,100671.63
2022-11-01T19:19:47.370Z,100674.06
2022-11-01T19:24:51.478Z,100672.34
2022-11-01T19:29:57.867Z,100660.00
2022-11-01T19:35:01.094Z,100672.88
2022-11-01T19:40:05.944Z,100679.13
2022-11-01T19:45:28.929Z,100678.13
2022-11-01T19:50:39.259Z,100683.38
2022-11-01T19:55:46.520Z,100687.91
2022-11-01T20:00:49.612Z,100689.63
2022-11-01T20:05:52.512Z,100693.56
2022-11-01T20:10:56.599Z,100690.34
2022-11-01T20:15:59.335Z,100706.78
2022-11-01T20:21:05.823Z,100711.03
2022-11-01T20:26:12.103Z,100721.09
2022-11-01T20:31:14.983Z,100719.13
2022-11-01T20:36:17.834Z,100718.13
2022-11-01T20:41:22.294Z,100712.03
2022-11-01T20:46:25.315Z,100716.44
2022-11-01T20:51:30.015Z,100705.78
2022-11-01T20:56:34.333Z,100718.13
2022-11-01T21:01:37.087Z,100722.53
2022-11-01T21:06:40.231Z,100719.00
2022-11-01T21:11:47.391Z,100716.06
2022-11-01T21:16:50.075Z,100731.59
2022-11-01T21:21:53.496Z,100729.66
2022-11-01T21:27:19.965Z,100735.16
2022-11-01T21:32:25.834Z,100737.63
2022-11-01T21:37:29.557Z,100734.44
2022-11-01T21:42:34.227Z,100734.16
2022-11-01T21:47:37.735Z,100722.53
2022-11-01T21:52:42.503Z,100725.22
2022-11-01T21:57:46.910Z,100719.84
2022-11-01T22:02:49.628Z,100717.28
2022-11-01T22:07:52.445Z,100717.25
2022-11-01T22:12:56.537Z,100717.16
2022-11-01T22:17:59.203Z,100718.88
2022-11-01T22:23:02.208Z,100708.59
2022-11-01T22:28:07.132Z,100725.34
2022-11-01T22:33:11.124Z,100714.69
2022-11-01T22:38:16.074Z,100722.78
2022-11-01T22:43:20.071Z,100725.25
2022-11-01T22:48:23.842Z,100729.16
2022-11-01T22:53:26.519Z,100737.72
2022-11-01T22:58:34.100Z,100732.47
2022-11-01T23:03:37.602Z,100732.69
2022-11-01T23:08:40.382Z,100733.22
2022-11-01T23:14:02.155Z,100733.31
2022-11-01T23:19:09.053Z,100736.25
2022-11-01T23:24:14.233Z,100741.25
2022-11-01T23:29:18.231Z,100746.63
2022-11-01T23:34:20.873Z,100753.38
2022-11-01T23:39:23.567Z,100762.31
2022-11-01T23:44:28.691Z,100745.44
2022-11-01T23:49:32.677Z,100750.81
2022-11-01T23:54:38.931Z,100752.41
2022-11-01T23:59:42.998Z,100748.34
